sensor_id;sensor_type;location;lat;lon;timestamp;P1;durP1;ratioP1;P2;durP2;ratioP2
23228;SDS011;11783;50.350;6.576;2022-11-20T00:01:31;17.70;;;9.23;;
23228;SDS011;11783;50.350;6.576;2022-11-20T00:03:57;18.27;;;9.02;;
23228;SDS011;11783;50.350;6.576;2022-11-20T00:06:23;17.50;;;9.07;;
23228;SDS011;11783;50.350;6.576;2022-11-20T00:08:50;15.73;;;8.27;;
23228;SDS011;11783;50.350;6.576;2022-11-20T00:11:19;19.67;;;8.80;;
23228;SDS011;11783;50.350;6.576;2022-11-20T00:13:47;17.48;;;8.30;;
23228;SDS011;11783;50.350;6.576;2022-11-20T00:16:15;12.75;;;7.05;;
23228;SDS011;11783;50.350;6.576;2022-11-20T00:18:42;15.13;;;7.85;;
23228;SDS011;11783;50.350;6.576;2022-11-20T00:21:14;18.42;;;8.55;;
23228;SDS011;11783;50.350;6.576;2022-11-20T00:23:42;17.33;;;8.98;;
23228;SDS011;11783;50.350;6.576;2022-11-20T00:26:12;13.63;;;7.20;;
23228;SDS011;11783;50.350;6.576;2022-11-20T00:28:38;14.90;;;6.93;;
23228;SDS011;11783;50.350;6.576;2022-11-20T00:31:11;14.45;;;8.20;;
23228;SDS011;11783;50.350;6.576;2022-11-20T00:33:38;16.45;;;8.30;;
23228;SDS011;11783;50.350;6.576;2022-11-20T00:36:05;18.65;;;8.85;;
23228;SDS011;11783;50.350;6.576;2022-11-20T00:38:32;23.10;;;9.57;;
23228;SDS011;11783;50.350;6.576;2022-11-20T00:40:58;18.95;;;10.00;;
23228;SDS011;11783;50.350;6.576;2022-11-20T00:43:26;18.75;;;8.82;;
23228;SDS011;11783;50.350;6.576;2022-11-20T00:46:06;17.13;;;8.38;;
23228;SDS011;11783;50.350;6.576;2022-11-20T00:48:32;16.90;;;8.45;;
23228;SDS011;11783;50.350;6.576;2022-11-20T00:50:58;16.63;;;8.18;;
23228;SDS011;11783;50.350;6.576;2022-11-20T00:53:24;18.13;;;8.57;;
23228;SDS011;11783;50.350;6.576;2022-11-20T00:55:53;18.40;;;8.73;;
23228;SDS011;11783;50.350;6.576;2022-11-20T00:58:21;17.70;;;9.17;;
23228;SDS011;11783;50.350;6.576;2022-11-20T01:00:46;18.35;;;9.20;;
23228;SDS011;11783;50.350;6.576;2022-11-20T01:03:12;15.25;;;8.07;;
23228;SDS011;11783;50.350;6.576;2022-11-20T01:05:37;17.60;;;9.00;;
23228;SDS011;11783;50.350;6.576;2022-11-20T01:08:03;18.23;;;8.80;;
23228;SDS011;11783;50.350;6.576;2022-11-20T01:10:28;17.15;;;7.88;;
23228;SDS011;11783;50.350;6.576;2022-11-20T01:12:53;16.70;;;8.35;;
23228;SDS011;11783;50.350;6.576;2022-11-20T01:15:39;15.93;;;8.35;;
23228;SDS011;11783;50.350;6.576;2022-11-20T01:18:04;21.55;;;10.23;;
23228;SDS011;11783;50.350;6.576;2022-11-20T01:20:30;17.02;;;8.60;;
23228;SDS011;11783;50.350;6.576;2022-11-20T01:22:59;16.40;;;7.50;;
23228;SDS011;11783;50.350;6.576;2022-11-20T01:25:24;20.38;;;9.73;;
23228;SDS011;11783;50.350;6.576;2022-11-20T01:27:50;25.40;;;9.80;;
23228;SDS011;11783;50.350;6.576;2022-11-20T01:30:15;17.85;;;8.63;;
23228;SDS011;11783;50.350;6.576;2022-11-20T01:32:40;16.20;;;8.63;;
23228;SDS011;11783;50.350;6.576;2022-11-20T01:35:06;15.63;;;8.82;;
23228;SDS011;11783;50.350;6.576;2022-11-20T01:37:34;14.00;;;7.28;;
23228;SDS011;11783;50.350;6.576;2022-11-20T01:39:59;17.48;;;8.60;;
23228;SDS011;11783;50.350;6.576;2022-11-20T01:42:25;17.95;;;9.55;;
23228;SDS011;11783;50.350;6.576;2022-11-20T01:48:18;14.27;;;7.28;;
23228;SDS011;11783;50.350;6.576;2022-11-20T01:50:45;13.25;;;7.45;;
23228;SDS011;11783;50.350;6.576;2022-11-20T01:53:11;12.00;;;6.85;;
23228;SDS011;11783;50.350;6.576;2022-11-20T01:55:44;15.18;;;8.18;;
23228;SDS011;11783;50.350;6.576;2022-11-20T01:58:15;15.13;;;7.63;;
23228;SDS011;11783;50.350;6.576;2022-11-20T02:00:44;14.80;;;7.85;;
23228;SDS011;11783;50.350;6.576;2022-11-20T02:03:11;13.15;;;6.57;;
23228;SDS011;11783;50.350;6.576;2022-11-20T02:05:41;8.50;;;4.88;;
23228;SDS011;11783;50.350;6.576;2022-11-20T02:08:13;12.63;;;6.97;;
23228;SDS011;11783;50.350;6.576;2022-11-20T02:10:39;14.30;;;7.57;;
23228;SDS011;11783;50.350;6.576;2022-11-20T02:13:04;14.98;;;7.32;;
23228;SDS011;11783;50.350;6.576;2022-11-20T02:15:48;15.85;;;8.27;;
23228;SDS011;11783;50.350;6.576;2022-11-20T02:18:14;17.08;;;8.52;;
23228;SDS011;11783;50.350;6.576;2022-11-20T02:20:42;21.33;;;9.80;;
23228;SDS011;11783;50.350;6.576;2022-11-20T02:25:49;15.70;;;7.88;;
23228;SDS011;11783;50.350;6.576;2022-11-20T02:28:16;19.30;;;8.63;;
23228;SDS011;11783;50.350;6.576;2022-11-20T02:30:42;14.75;;;8.10;;
23228;SDS011;11783;50.350;6.576;2022-11-20T02:33:08;17.98;;;7.68;;
23228;SDS011;11783;50.350;6.576;2022-11-20T02:37:59;14.05;;;7.28;;
23228;SDS011;11783;50.350;6.576;2022-11-20T02:40:27;14.52;;;7.28;;
23228;SDS011;11783;50.350;6.576;2022-11-20T02:42:52;15.18;;;7.40;;
23228;SDS011;11783;50.350;6.576;2022-11-20T02:45:18;13.68;;;7.22;;
23228;SDS011;11783;50.350;6.576;2022-11-20T02:47:43;12.30;;;6.80;;
23228;SDS011;11783;50.350;6.576;2022-11-20T02:50:09;12.75;;;7.55;;
23228;SDS011;11783;50.350;6.576;2022-11-20T02:52:34;12.82;;;7.13;;
23228;SDS011;11783;50.350;6.576;2022-11-20T02:54:59;14.75;;;7.57;;
23228;SDS011;11783;50.350;6.576;2022-11-20T02:57:25;14.77;;;7.75;;
23228;SDS011;11783;50.350;6.576;2022-11-20T02:59:50;16.55;;;7.70;;
23228;SDS011;11783;50.350;6.576;2022-11-20T03:02:16;15.82;;;8.23;;
23228;SDS011;11783;50.350;6.576;2022-11-20T03:04:41;14.13;;;7.93;;
23228;SDS011;11783;50.350;6.576;2022-11-20T03:07:07;11.68;;;6.70;;
23228;SDS011;11783;50.350;6.576;2022-11-20T03:09:33;14.45;;;7.65;;
23228;SDS011;11783;50.350;6.576;2022-11-20T03:11:58;13.63;;;7.75;;
23228;SDS011;11783;50.350;6.576;2022-11-20T03:14:24;15.35;;;8.65;;
23228;SDS011;11783;50.350;6.576;2022-11-20T03:16:49;14.52;;;7.68;;
23228;SDS011;11783;50.350;6.576;2022-11-20T03:19:14;12.55;;;7.60;;
23228;SDS011;11783;50.350;6.576;2022-11-20T03:21:40;15.70;;;7.93;;
23228;SDS011;11783;50.350;6.576;2022-11-20T03:24:05;14.07;;;7.45;;
23228;SDS011;11783;50.350;6.576;2022-11-20T03:26:31;14.38;;;7.47;;
23228;SDS011;11783;50.350;6.576;2022-11-20T03:28:57;14.82;;;7.25;;
23228;SDS011;11783;50.350;6.576;2022-11-20T03:31:28;15.13;;;8.88;;
23228;SDS011;11783;50.350;6.576;2022-11-20T03:33:57;13.73;;;7.80;;
23228;SDS011;11783;50.350;6.576;2022-11-20T03:36:23;14.98;;;8.15;;
23228;SDS011;11783;50.350;6.576;2022-11-20T03:38:52;14.07;;;7.18;;
23228;SDS011;11783;50.350;6.576;2022-11-20T03:41:19;14.43;;;7.82;;
23228;SDS011;11783;50.350;6.576;2022-11-20T03:43:50;16.83;;;8.95;;
23228;SDS011;11783;50.350;6.576;2022-11-20T03:46:17;16.23;;;8.23;;
23228;SDS011;11783;50.350;6.576;2022-11-20T03:48:42;16.63;;;8.65;;
23228;SDS011;11783;50.350;6.576;2022-11-20T03:53:35;14.15;;;7.57;;
23228;SDS011;11783;50.350;6.576;2022-11-20T03:56:00;14.30;;;7.05;;
23228;SDS011;11783;50.350;6.576;2022-11-20T03:58:25;15.98;;;7.72;;
23228;SDS011;11783;50.350;6.576;2022-11-20T04:00:51;17.40;;;7.88;;
23228;SDS011;11783;50.350;6.576;2022-11-20T04:03:16;14.60;;;7.03;;
23228;SDS011;11783;50.350;6.576;2022-11-20T04:05:41;15.45;;;7.00;;
23228;SDS011;11783;50.350;6.576;2022-11-20T04:08:07;11.73;;;6.15;;
23228;SDS011;11783;50.350;6.576;2022-11-20T04:10:32;10.73;;;4.90;;
23228;SDS011;11783;50.350;6.576;2022-11-20T04:12:57;11.88;;;5.63;;
23228;SDS011;11783;50.350;6.576;2022-11-20T04:15:22;9.45;;;4.85;;
23228;SDS011;11783;50.350;6.576;2022-11-20T04:17:48;6.70;;;3.38;;
23228;SDS011;11783;50.350;6.576;2022-11-20T04:20:13;6.45;;;3.33;;
23228;SDS011;11783;50.350;6.576;2022-11-20T04:22:39;6.55;;;3.28;;
23228;SDS011;11783;50.350;6.576;2022-11-20T04:25:04;6.60;;;3.08;;
23228;SDS011;11783;50.350;6.576;2022-11-20T04:27:30;5.95;;;3.17;;
23228;SDS011;11783;50.350;6.576;2022-11-20T04:29:55;6.68;;;3.30;;
23228;SDS011;11783;50.350;6.576;2022-11-20T04:32:21;5.53;;;2.60;;
23228;SDS011;11783;50.350;6.576;2022-11-20T04:34:46;5.18;;;2.83;;
23228;SDS011;11783;50.350;6.576;2022-11-20T04:37:11;6.45;;;3.30;;
23228;SDS011;11783;50.350;6.576;2022-11-20T04:39:36;7.20;;;3.75;;
23228;SDS011;11783;50.350;6.576;2022-11-20T04:42:02;5.70;;;3.30;;
23228;SDS011;11783;50.350;6.576;2022-11-20T04:44:46;6.60;;;3.67;;
23228;SDS011;11783;50.350;6.576;2022-11-20T04:47:11;6.13;;;3.75;;
23228;SDS011;11783;50.350;6.576;2022-11-20T04:49:36;6.00;;;3.70;;
23228;SDS011;11783;50.350;6.576;2022-11-20T04:52:01;6.00;;;3.72;;
23228;SDS011;11783;50.350;6.576;2022-11-20T04:54:27;6.93;;;3.65;;
23228;SDS011;11783;50.350;6.576;2022-11-20T04:56:52;5.70;;;3.40;;
23228;SDS011;11783;50.350;6.576;2022-11-20T04:59:17;5.10;;;3.17;;
23228;SDS011;11783;50.350;6.576;2022-11-20T05:01:43;4.75;;;3.17;;
23228;SDS011;11783;50.350;6.576;2022-11-20T05:04:08;4.55;;;2.63;;
23228;SDS011;11783;50.350;6.576;2022-11-20T05:06:37;5.53;;;3.13;;
23228;SDS011;11783;50.350;6.576;2022-11-20T05:09:04;4.50;;;2.55;;
23228;SDS011;11783;50.350;6.576;2022-11-20T05:11:31;4.00;;;2.22;;
23228;SDS011;11783;50.350;6.576;2022-11-20T05:13:58;4.30;;;2.50;;
23228;SDS011;11783;50.350;6.576;2022-11-20T05:16:25;4.53;;;2.35;;
23228;SDS011;11783;50.350;6.576;2022-11-20T05:18:51;4.70;;;2.67;;
23228;SDS011;11783;50.350;6.576;2022-11-20T05:21:19;5.72;;;3.20;;
23228;SDS011;11783;50.350;6.576;2022-11-20T05:23:45;5.57;;;2.85;;
23228;SDS011;11783;50.350;6.576;2022-11-20T05:26:12;5.88;;;3.40;;
23228;SDS011;11783;50.350;6.576;2022-11-20T05:28:39;6.25;;;3.17;;
23228;SDS011;11783;50.350;6.576;2022-11-20T05:31:06;7.22;;;3.42;;
23228;SDS011;11783;50.350;6.576;2022-11-20T05:33:36;5.28;;;3.20;;
23228;SDS011;11783;50.350;6.576;2022-11-20T05:36:04;5.55;;;3.92;;
23228;SDS011;11783;50.350;6.576;2022-11-20T05:38:30;6.13;;;3.70;;
23228;SDS011;11783;50.350;6.576;2022-11-20T05:41:02;6.95;;;3.97;;
23228;SDS011;11783;50.350;6.576;2022-11-20T05:43:39;7.22;;;4.07;;
23228;SDS011;11783;50.350;6.576;2022-11-20T05:46:06;6.15;;;4.00;;
23228;SDS011;11783;50.350;6.576;2022-11-20T05:48:32;8.52;;;4.85;;
23228;SDS011;11783;50.350;6.576;2022-11-20T05:51:05;7.10;;;4.72;;
23228;SDS011;11783;50.350;6.576;2022-11-20T05:53:32;7.25;;;4.43;;
23228;SDS011;11783;50.350;6.576;2022-11-20T05:56:06;7.82;;;4.07;;
23228;SDS011;11783;50.350;6.576;2022-11-20T05:58:34;6.65;;;4.30;;
23228;SDS011;11783;50.350;6.576;2022-11-20T06:01:05;6.85;;;4.32;;
23228;SDS011;11783;50.350;6.576;2022-11-20T06:03:54;7.28;;;4.18;;
23228;SDS011;11783;50.350;6.576;2022-11-20T06:06:20;7.97;;;3.92;;
23228;SDS011;11783;50.350;6.576;2022-11-20T06:08:46;5.50;;;3.50;;
23228;SDS011;11783;50.350;6.576;2022-11-20T06:11:13;6.40;;;3.53;;
23228;SDS011;11783;50.350;6.576;2022-11-20T06:13:40;5.82;;;3.30;;
23228;SDS011;11783;50.350;6.576;2022-11-20T06:16:06;4.50;;;2.67;;
23228;SDS011;11783;50.350;6.576;2022-11-20T06:18:31;4.78;;;2.72;;
23228;SDS011;11783;50.350;6.576;2022-11-20T06:21:00;5.80;;;3.20;;
23228;SDS011;11783;50.350;6.576;2022-11-20T06:23:46;5.68;;;3.05;;
23228;SDS011;11783;50.350;6.576;2022-11-20T06:26:16;4.93;;;3.00;;
23228;SDS011;11783;50.350;6.576;2022-11-20T06:28:44;7.18;;;3.80;;
23228;SDS011;11783;50.350;6.576;2022-11-20T06:31:11;5.32;;;2.90;;
23228;SDS011;11783;50.350;6.576;2022-11-20T06:33:38;7.40;;;3.65;;
23228;SDS011;11783;50.350;6.576;2022-11-20T06:36:03;5.18;;;3.45;;
23228;SDS011;11783;50.350;6.576;2022-11-20T06:38:29;6.00;;;3.72;;
23228;SDS011;11783;50.350;6.576;2022-11-20T06:40:55;7.18;;;4.00;;
23228;SDS011;11783;50.350;6.576;2022-11-20T06:43:20;7.80;;;3.90;;
23228;SDS011;11783;50.350;6.576;2022-11-20T06:45:50;6.35;;;4.03;;
23228;SDS011;11783;50.350;6.576;2022-11-20T06:48:17;5.68;;;3.42;;
23228;SDS011;11783;50.350;6.576;2022-11-20T06:50:42;8.05;;;4.70;;
23228;SDS011;11783;50.350;6.576;2022-11-20T06:53:07;8.38;;;5.30;;
23228;SDS011;11783;50.350;6.576;2022-11-20T06:55:32;8.77;;;5.18;;
23228;SDS011;11783;50.350;6.576;2022-11-20T06:57:58;9.05;;;6.10;;
23228;SDS011;11783;50.350;6.576;2022-11-20T07:00:23;11.32;;;6.88;;
23228;SDS011;11783;50.350;6.576;2022-11-20T07:02:49;11.27;;;7.32;;
23228;SDS011;11783;50.350;6.576;2022-11-20T07:05:14;14.32;;;8.57;;
23228;SDS011;11783;50.350;6.576;2022-11-20T07:07:40;14.60;;;8.82;;
23228;SDS011;11783;50.350;6.576;2022-11-20T07:10:05;14.20;;;9.32;;
23228;SDS011;11783;50.350;6.576;2022-11-20T07:12:31;15.38;;;9.15;;
23228;SDS011;11783;50.350;6.576;2022-11-20T07:14:56;15.15;;;10.13;;
23228;SDS011;11783;50.350;6.576;2022-11-20T07:17:21;15.88;;;10.52;;
23228;SDS011;11783;50.350;6.576;2022-11-20T07:19:46;19.25;;;10.43;;
23228;SDS011;11783;50.350;6.576;2022-11-20T07:22:12;18.67;;;10.57;;
23228;SDS011;11783;50.350;6.576;2022-11-20T07:24:38;16.85;;;11.10;;
23228;SDS011;11783;50.350;6.576;2022-11-20T07:27:04;17.30;;;11.20;;
23228;SDS011;11783;50.350;6.576;2022-11-20T07:29:30;18.90;;;11.77;;
23228;SDS011;11783;50.350;6.576;2022-11-20T07:31:56;19.40;;;12.30;;
23228;SDS011;11783;50.350;6.576;2022-11-20T07:34:21;21.60;;;12.70;;
23228;SDS011;11783;50.350;6.576;2022-11-20T07:36:47;21.77;;;12.27;;
23228;SDS011;11783;50.350;6.576;2022-11-20T07:39:12;20.67;;;12.95;;
23228;SDS011;11783;50.350;6.576;2022-11-20T07:41:38;19.67;;;11.90;;
23228;SDS011;11783;50.350;6.576;2022-11-20T07:44:03;22.15;;;13.77;;
23228;SDS011;11783;50.350;6.576;2022-11-20T07:46:28;25.17;;;14.52;;
23228;SDS011;11783;50.350;6.576;2022-11-20T07:48:54;26.15;;;15.07;;
23228;SDS011;11783;50.350;6.576;2022-11-20T07:51:19;26.40;;;15.63;;
23228;SDS011;11783;50.350;6.576;2022-11-20T07:53:44;29.48;;;16.55;;
23228;SDS011;11783;50.350;6.576;2022-11-20T07:56:10;30.58;;;16.52;;
23228;SDS011;11783;50.350;6.576;2022-11-20T07:58:35;29.75;;;16.25;;
23228;SDS011;11783;50.350;6.576;2022-11-20T08:01:04;33.05;;;18.00;;
23228;SDS011;11783;50.350;6.576;2022-11-20T08:03:30;30.63;;;16.85;;
23228;SDS011;11783;50.350;6.576;2022-11-20T08:05:58;36.20;;;17.33;;
23228;SDS011;11783;50.350;6.576;2022-11-20T08:08:27;26.95;;;16.38;;
23228;SDS011;11783;50.350;6.576;2022-11-20T08:10:56;32.80;;;17.05;;
23228;SDS011;11783;50.350;6.576;2022-11-20T08:13:41;33.97;;;17.70;;
23228;SDS011;11783;50.350;6.576;2022-11-20T08:16:25;32.15;;;17.13;;
23228;SDS011;11783;50.350;6.576;2022-11-20T08:18:51;35.92;;;18.38;;
23228;SDS011;11783;50.350;6.576;2022-11-20T08:21:16;30.73;;;17.13;;
23228;SDS011;11783;50.350;6.576;2022-11-20T08:23:41;33.20;;;17.23;;
23228;SDS011;11783;50.350;6.576;2022-11-20T08:26:06;31.92;;;15.93;;
23228;SDS011;11783;50.350;6.576;2022-11-20T08:28:32;32.70;;;17.23;;
23228;SDS011;11783;50.350;6.576;2022-11-20T08:30:58;29.25;;;16.20;;
23228;SDS011;11783;50.350;6.576;2022-11-20T08:33:24;33.65;;;17.40;;
23228;SDS011;11783;50.350;6.576;2022-11-20T08:35:49;30.35;;;15.65;;
23228;SDS011;11783;50.350;6.576;2022-11-20T08:38:15;28.27;;;15.20;;
23228;SDS011;11783;50.350;6.576;2022-11-20T08:40:40;28.83;;;14.32;;
23228;SDS011;11783;50.350;6.576;2022-11-20T08:43:05;30.10;;;14.93;;
23228;SDS011;11783;50.350;6.576;2022-11-20T08:45:31;28.48;;;15.32;;
23228;SDS011;11783;50.350;6.576;2022-11-20T08:47:59;31.67;;;15.30;;
23228;SDS011;11783;50.350;6.576;2022-11-20T08:50:25;24.80;;;13.25;;
23228;SDS011;11783;50.350;6.576;2022-11-20T08:52:50;26.23;;;12.35;;
23228;SDS011;11783;50.350;6.576;2022-11-20T08:55:15;24.48;;;12.55;;
23228;SDS011;11783;50.350;6.576;2022-11-20T08:57:41;21.70;;;11.15;;
23228;SDS011;11783;50.350;6.576;2022-11-20T09:00:06;20.85;;;10.43;;
23228;SDS011;11783;50.350;6.576;2022-11-20T09:02:32;19.65;;;10.30;;
23228;SDS011;11783;50.350;6.576;2022-11-20T09:04:58;21.65;;;10.93;;
23228;SDS011;11783;50.350;6.576;2022-11-20T09:07:23;20.92;;;11.27;;
23228;SDS011;11783;50.350;6.576;2022-11-20T09:09:49;20.88;;;10.98;;
23228;SDS011;11783;50.350;6.576;2022-11-20T09:12:14;21.00;;;11.80;;
23228;SDS011;11783;50.350;6.576;2022-11-20T09:14:39;18.83;;;10.23;;
23228;SDS011;11783;50.350;6.576;2022-11-20T09:17:05;20.83;;;11.32;;
23228;SDS011;11783;50.350;6.576;2022-11-20T09:19:32;18.00;;;10.27;;
23228;SDS011;11783;50.350;6.576;2022-11-20T09:21:57;22.80;;;11.85;;
23228;SDS011;11783;50.350;6.576;2022-11-20T09:24:24;20.70;;;11.32;;
23228;SDS011;11783;50.350;6.576;2022-11-20T09:26:50;19.17;;;10.68;;
23228;SDS011;11783;50.350;6.576;2022-11-20T09:29:17;20.85;;;10.68;;
23228;SDS011;11783;50.350;6.576;2022-11-20T09:31:42;22.90;;;11.07;;
23228;SDS011;11783;50.350;6.576;2022-11-20T09:34:07;20.02;;;10.18;;
23228;SDS011;11783;50.350;6.576;2022-11-20T09:36:33;22.77;;;11.40;;
23228;SDS011;11783;50.350;6.576;2022-11-20T09:38:58;19.10;;;10.38;;
23228;SDS011;11783;50.350;6.576;2022-11-20T09:47:11;18.77;;;10.32;;
23228;SDS011;11783;50.350;6.576;2022-11-20T09:52:37;16.70;;;9.18;;
23228;SDS011;11783;50.350;6.576;2022-11-20T09:55:25;15.27;;;8.68;;
23228;SDS011;11783;50.350;6.576;2022-11-20T09:57:54;15.25;;;8.68;;
23228;SDS011;11783;50.350;6.576;2022-11-20T10:00:20;15.95;;;9.13;;
23228;SDS011;11783;50.350;6.576;2022-11-20T10:02:52;15.88;;;8.50;;
23228;SDS011;11783;50.350;6.576;2022-11-20T10:05:31;14.23;;;8.48;;
23228;SDS011;11783;50.350;6.576;2022-11-20T10:18:49;14.77;;;8.25;;
23228;SDS011;11783;50.350;6.576;2022-11-20T10:32:32;14.15;;;8.15;;
23228;SDS011;11783;50.350;6.576;2022-11-20T10:37:59;17.45;;;8.93;;
23228;SDS011;11783;50.350;6.576;2022-11-20T10:40:33;17.90;;;8.98;;
23228;SDS011;11783;50.350;6.576;2022-11-20T10:43:24;17.38;;;9.00;;
23228;SDS011;11783;50.350;6.576;2022-11-20T10:45:58;15.75;;;8.68;;
23228;SDS011;11783;50.350;6.576;2022-11-20T10:48:28;16.60;;;8.98;;
23228;SDS011;11783;50.350;6.576;2022-11-20T10:51:01;15.13;;;8.60;;
23228;SDS011;11783;50.350;6.576;2022-11-20T11:01:56;15.95;;;8.02;;
23228;SDS011;11783;50.350;6.576;2022-11-20T11:06:54;15.90;;;7.97;;
23228;SDS011;11783;50.350;6.576;2022-11-20T11:09:34;11.27;;;6.30;;
23228;SDS011;11783;50.350;6.576;2022-11-20T11:12:10;13.65;;;7.22;;
23228;SDS011;11783;50.350;6.576;2022-11-20T11:14:43;15.10;;;7.53;;
23228;SDS011;11783;50.350;6.576;2022-11-20T11:17:19;14.98;;;7.18;;
23228;SDS011;11783;50.350;6.576;2022-11-20T11:22:25;15.52;;;6.95;;
23228;SDS011;11783;50.350;6.576;2022-11-20T11:24:52;15.20;;;6.00;;
23228;SDS011;11783;50.350;6.576;2022-11-20T11:27:18;11.50;;;5.95;;
23228;SDS011;11783;50.350;6.576;2022-11-20T11:29:44;11.70;;;5.45;;
23228;SDS011;11783;50.350;6.576;2022-11-20T11:32:14;9.02;;;4.97;;
23228;SDS011;11783;50.350;6.576;2022-11-20T11:34:43;10.73;;;4.72;;
23228;SDS011;11783;50.350;6.576;2022-11-20T11:37:16;9.80;;;4.65;;
23228;SDS011;11783;50.350;6.576;2022-11-20T11:39:46;10.02;;;4.72;;
23228;SDS011;11783;50.350;6.576;2022-11-20T11:42:13;11.00;;;4.15;;
23228;SDS011;11783;50.350;6.576;2022-11-20T11:44:46;9.68;;;4.20;;
23228;SDS011;11783;50.350;6.576;2022-11-20T11:53:12;8.18;;;3.42;;
23228;SDS011;11783;50.350;6.576;2022-11-20T11:55:43;7.97;;;2.67;;
23228;SDS011;11783;50.350;6.576;2022-11-20T12:04:16;10.60;;;3.15;;
23228;SDS011;11783;50.350;6.576;2022-11-20T12:06:51;5.40;;;2.85;;
23228;SDS011;11783;50.350;6.576;2022-11-20T12:09:37;11.82;;;3.28;;
23228;SDS011;11783;50.350;6.576;2022-11-20T12:12:09;8.13;;;3.22;;
23228;SDS011;11783;50.350;6.576;2022-11-20T12:14:40;6.07;;;2.40;;
23228;SDS011;11783;50.350;6.576;2022-11-20T12:17:11;6.05;;;2.50;;
23228;SDS011;11783;50.350;6.576;2022-11-20T12:19:38;7.75;;;2.53;;
23228;SDS011;11783;50.350;6.576;2022-11-20T12:22:14;9.27;;;3.03;;
23228;SDS011;11783;50.350;6.576;2022-11-20T12:28:13;8.48;;;3.28;;
23228;SDS011;11783;50.350;6.576;2022-11-20T12:33:44;9.73;;;2.78;;
23228;SDS011;11783;50.350;6.576;2022-11-20T12:42:16;9.45;;;2.65;;
23228;SDS011;11783;50.350;6.576;2022-11-20T12:44:51;8.40;;;2.60;;
23228;SDS011;11783;50.350;6.576;2022-11-20T12:53:03;9.05;;;3.15;;
23228;SDS011;11783;50.350;6.576;2022-11-20T12:55:36;5.90;;;2.45;;
23228;SDS011;11783;50.350;6.576;2022-11-20T12:58:14;5.07;;;2.47;;
23228;SDS011;11783;50.350;6.576;2022-11-20T13:01:00;9.43;;;3.03;;
23228;SDS011;11783;50.350;6.576;2022-11-20T13:04:01;7.85;;;2.78;;
23228;SDS011;11783;50.350;6.576;2022-11-20T13:06:37;10.75;;;2.42;;
23228;SDS011;11783;50.350;6.576;2022-11-20T13:09:06;8.25;;;2.65;;
23228;SDS011;11783;50.350;6.576;2022-11-20T13:17:43;5.78;;;2.72;;
23228;SDS011;11783;50.350;6.576;2022-11-20T13:20:17;7.88;;;2.55;;
23228;SDS011;11783;50.350;6.576;2022-11-20T13:25:21;9.88;;;2.50;;
23228;SDS011;11783;50.350;6.576;2022-11-20T13:27:48;6.85;;;2.40;;
23228;SDS011;11783;50.350;6.576;2022-11-20T13:32:48;5.80;;;2.13;;
23228;SDS011;11783;50.350;6.576;2022-11-20T13:35:22;5.18;;;1.85;;
23228;SDS011;11783;50.350;6.576;2022-11-20T13:38:06;8.75;;;2.35;;
23228;SDS011;11783;50.350;6.576;2022-11-20T13:40:35;6.93;;;2.13;;
23228;SDS011;11783;50.350;6.576;2022-11-20T13:43:21;6.82;;;2.20;;
23228;SDS011;11783;50.350;6.576;2022-11-20T13:45:54;6.32;;;2.05;;
23228;SDS011;11783;50.350;6.576;2022-11-20T13:48:26;6.55;;;2.05;;
23228;SDS011;11783;50.350;6.576;2022-11-20T13:56:24;7.72;;;2.10;;
23228;SDS011;11783;50.350;6.576;2022-11-20T13:59:17;5.18;;;2.10;;
23228;SDS011;11783;50.350;6.576;2022-11-20T14:01:48;6.53;;;2.20;;
23228;SDS011;11783;50.350;6.576;2022-11-20T14:04:15;7.72;;;2.05;;
23228;SDS011;11783;50.350;6.576;2022-11-20T14:06:57;3.50;;;1.90;;
23228;SDS011;11783;50.350;6.576;2022-11-20T14:09:27;9.45;;;3.05;;
23228;SDS011;11783;50.350;6.576;2022-11-20T14:11:54;6.13;;;2.17;;
23228;SDS011;11783;50.350;6.576;2022-11-20T14:14:21;7.50;;;2.17;;
23228;SDS011;11783;50.350;6.576;2022-11-20T14:16:48;4.13;;;2.10;;
23228;SDS011;11783;50.350;6.576;2022-11-20T14:21:46;4.85;;;2.05;;
23228;SDS011;11783;50.350;6.576;2022-11-20T14:24:13;5.40;;;2.00;;
23228;SDS011;11783;50.350;6.576;2022-11-20T14:26:43;8.60;;;2.53;;
23228;SDS011;11783;50.350;6.576;2022-11-20T14:29:14;5.15;;;1.90;;
23228;SDS011;11783;50.350;6.576;2022-11-20T14:31:43;7.13;;;2.38;;
23228;SDS011;11783;50.350;6.576;2022-11-20T14:34:13;5.38;;;2.10;;
23228;SDS011;11783;50.350;6.576;2022-11-20T14:36:42;5.13;;;1.88;;
23228;SDS011;11783;50.350;6.576;2022-11-20T14:39:10;5.22;;;2.15;;
23228;SDS011;11783;50.350;6.576;2022-11-20T14:41:36;7.32;;;2.33;;
23228;SDS011;11783;50.350;6.576;2022-11-20T14:44:02;5.63;;;2.65;;
23228;SDS011;11783;50.350;6.576;2022-11-20T14:46:29;7.82;;;2.25;;
23228;SDS011;11783;50.350;6.576;2022-11-20T14:48:57;5.10;;;2.55;;
23228;SDS011;11783;50.350;6.576;2022-11-20T14:51:31;7.03;;;2.33;;
23228;SDS011;11783;50.350;6.576;2022-11-20T14:54:17;11.18;;;2.50;;
23228;SDS011;11783;50.350;6.576;2022-11-20T14:56:57;6.95;;;2.38;;
23228;SDS011;11783;50.350;6.576;2022-11-20T14:59:33;4.78;;;2.30;;
23228;SDS011;11783;50.350;6.576;2022-11-20T15:02:07;10.27;;;2.53;;
23228;SDS011;11783;50.350;6.576;2022-11-20T15:05:18;4.50;;;2.20;;
23228;SDS011;11783;50.350;6.576;2022-11-20T15:07:25;9.13;;;2.35;;
23228;SDS011;11783;50.350;6.576;2022-11-20T15:12:28;6.97;;;2.30;;
23228;SDS011;11783;50.350;6.576;2022-11-20T15:14:54;5.45;;;2.30;;
23228;SDS011;11783;50.350;6.576;2022-11-20T15:17:20;6.78;;;2.10;;
23228;SDS011;11783;50.350;6.576;2022-11-20T15:19:45;3.58;;;2.03;;
23228;SDS011;11783;50.350;6.576;2022-11-20T15:22:11;4.68;;;2.40;;
23228;SDS011;11783;50.350;6.576;2022-11-20T15:24:44;3.40;;;2.00;;
23228;SDS011;11783;50.350;6.576;2022-11-20T15:27:10;4.07;;;2.30;;
23228;SDS011;11783;50.350;6.576;2022-11-20T15:29:35;6.10;;;2.80;;
23228;SDS011;11783;50.350;6.576;2022-11-20T15:32:00;7.10;;;3.08;;
23228;SDS011;11783;50.350;6.576;2022-11-20T15:34:26;8.13;;;3.38;;
23228;SDS011;11783;50.350;6.576;2022-11-20T15:36:52;5.35;;;2.95;;
23228;SDS011;11783;50.350;6.576;2022-11-20T15:39:18;6.97;;;3.05;;
23228;SDS011;11783;50.350;6.576;2022-11-20T15:41:43;7.05;;;3.40;;
23228;SDS011;11783;50.350;6.576;2022-11-20T15:44:09;6.18;;;3.05;;
23228;SDS011;11783;50.350;6.576;2022-11-20T15:46:38;5.88;;;2.80;;
23228;SDS011;11783;50.350;6.576;2022-11-20T15:49:11;6.18;;;2.55;;
23228;SDS011;11783;50.350;6.576;2022-11-20T15:51:38;5.35;;;2.75;;
23228;SDS011;11783;50.350;6.576;2022-11-20T15:54:13;7.78;;;2.63;;
23228;SDS011;11783;50.350;6.576;2022-11-20T15:56:40;3.92;;;2.40;;
23228;SDS011;11783;50.350;6.576;2022-11-20T15:59:05;3.78;;;2.40;;
23228;SDS011;11783;50.350;6.576;2022-11-20T16:01:30;4.65;;;2.40;;
23228;SDS011;11783;50.350;6.576;2022-11-20T16:03:56;4.60;;;2.38;;
23228;SDS011;11783;50.350;6.576;2022-11-20T16:06:22;4.82;;;2.40;;
23228;SDS011;11783;50.350;6.576;2022-11-20T16:08:47;4.20;;;1.80;;
23228;SDS011;11783;50.350;6.576;2022-11-20T16:11:13;6.07;;;1.95;;
23228;SDS011;11783;50.350;6.576;2022-11-20T16:13:40;4.15;;;1.80;;
23228;SDS011;11783;50.350;6.576;2022-11-20T16:16:25;3.85;;;1.65;;
23228;SDS011;11783;50.350;6.576;2022-11-20T16:18:55;3.97;;;1.73;;
23228;SDS011;11783;50.350;6.576;2022-11-20T16:21:20;5.22;;;1.40;;
23228;SDS011;11783;50.350;6.576;2022-11-20T16:23:46;2.67;;;1.08;;
23228;SDS011;11783;50.350;6.576;2022-11-20T16:26:12;2.55;;;1.20;;
23228;SDS011;11783;50.350;6.576;2022-11-20T16:28:39;2.30;;;1.10;;
23228;SDS011;11783;50.350;6.576;2022-11-20T16:31:09;3.45;;;1.20;;
23228;SDS011;11783;50.350;6.576;2022-11-20T16:33:35;2.90;;;1.10;;
23228;SDS011;11783;50.350;6.576;2022-11-20T16:36:10;3.70;;;1.30;;